Time;durP1;ratioP1;P1;durP2;ratioP2;P2;SDS_P1;SDS_P2;PMS_P1;PMS_P2;Temp;Humidity;BMP_temperature;BMP_pressure;BME280_temperature;BME280_humidity;BME280_pressure;Samples;Min_cycle;Max_cycle;Signal;HPM_P1;HPM_P2
2023/01/29 00:02:20;;;;;;;8.77;2.88;;;;;;;;;;5036622;28;20575;-62
2023/01/29 00:04:50;;;;;;;5.35;2.20;;;;;;;;;;5070200;28;20055;-63
2023/01/29 00:07:21;;;;;;;7.60;1.80;;;;;;;;;;5053030;28;20397;-63
2023/01/29 00:09:52;;;;;;;4.10;1.80;;;;;;;;;;5045517;28;20061;-63
2023/01/29 00:12:23;;;;;;;5.03;2.00;;;;;;;;;;5046252;28;20406;-62
2023/01/29 00:14:53;;;;;;;3.15;1.60;;;;;;;;;;5029943;28;20501;-63
2023/01/29 00:17:24;;;;;;;3.35;1.58;;;;;;;;;;5029994;28;20505;-62
2023/01/29 00:19:53;;;;;;;4.32;1.88;;;;;;;;;;5029926;28;20057;-62
2023/01/29 00:22:24;;;;;;;10.02;1.63;;;;;;;;;;5029879;28;20049;-62
2023/01/29 00:24:54;;;;;;;7.97;1.90;;;;;;;;;;5030119;28;20050;-62
2023/01/29 00:27:24;;;;;;;3.90;1.83;;;;;;;;;;5039138;28;20054;-62
2023/01/29 00:30:11;;;;;;;7.93;1.98;;;;;;;;;;5069304;28;20404;-63
2023/01/29 00:32:42;;;;;;;5.38;2.05;;;;;;;;;;5036162;28;20091;-62
2023/01/29 00:35:12;;;;;;;7.07;2.10;;;;;;;;;;5069466;28;20525;-62
2023/01/29 00:37:42;;;;;;;6.40;1.98;;;;;;;;;;5036355;28;20056;-62
2023/01/29 00:40:13;;;;;;;6.72;2.55;;;;;;;;;;5049146;28;20045;-62
2023/01/29 00:45:38;;;;;;;8.15;1.83;;;;;;;;;;5029193;28;20060;-62
2023/01/29 00:48:08;;;;;;;4.20;1.80;;;;;;;;;;5028997;28;20060;-62
2023/01/29 00:50:38;;;;;;;3.58;1.98;;;;;;;;;;5029127;28;20073;-62
2023/01/29 00:53:08;;;;;;;6.20;2.03;;;;;;;;;;5029032;28;20057;-62
2023/01/29 00:55:38;;;;;;;7.72;1.85;;;;;;;;;;5029021;28;20065;-62
2023/01/29 00:58:09;;;;;;;5.78;1.90;;;;;;;;;;5028952;28;20057;-62
2023/01/29 01:00:39;;;;;;;8.00;1.77;;;;;;;;;;5028963;28;20057;-63
2023/01/29 01:03:09;;;;;;;4.88;1.83;;;;;;;;;;5028636;28;20775;-62
2023/01/29 01:05:43;;;;;;;6.03;1.80;;;;;;;;;;5028844;28;20054;-62
2023/01/29 01:11:05;;;;;;;7.45;1.70;;;;;;;;;;5028555;28;20069;-62
2023/01/29 01:13:35;;;;;;;6.57;1.90;;;;;;;;;;5008559;28;20073;-62
2023/01/29 01:16:13;;;;;;;5.57;2.00;;;;;;;;;;5008793;28;20594;-62
2023/01/29 01:18:44;;;;;;;3.95;1.92;;;;;;;;;;4975797;28;20578;-63
2023/01/29 01:21:14;;;;;;;7.78;1.73;;;;;;;;;;4972422;28;20454;-62
2023/01/29 01:23:45;;;;;;;4.10;1.65;;;;;;;;;;4969836;28;20058;-62
2023/01/29 01:26:15;;;;;;;8.27;1.67;;;;;;;;;;4988994;28;20529;-62
2023/01/29 01:28:45;;;;;;;4.93;1.83;;;;;;;;;;4957823;28;20065;-62
2023/01/29 01:31:15;;;;;;;9.20;2.85;;;;;;;;;;4956340;28;20644;-62
2023/01/29 01:33:45;;;;;;;5.68;1.73;;;;;;;;;;4972711;28;20533;-63
2023/01/29 01:36:16;;;;;;;3.63;1.95;;;;;;;;;;4989154;28;20053;-62
2023/01/29 01:38:46;;;;;;;5.35;1.90;;;;;;;;;;4988887;28;20061;-62
2023/01/29 01:41:20;;;;;;;3.25;1.55;;;;;;;;;;4973044;28;20066;-62
2023/01/29 01:43:56;;;;;;;3.58;1.70;;;;;;;;;;4989177;28;20065;-62
2023/01/29 01:46:31;;;;;;;4.07;1.45;;;;;;;;;;4942774;28;20058;-62
2023/01/29 01:49:11;;;;;;;4.43;2.17;;;;;;;;;;4950156;28;20082;-62
2023/01/29 01:51:49;;;;;;;7.32;1.70;;;;;;;;;;4928205;29;20051;-62
2023/01/29 01:54:30;;;;;;;2.75;1.30;;;;;;;;;;4934281;29;20412;-62
2023/01/29 01:57:14;;;;;;;3.17;1.42;;;;;;;;;;4932812;29;20056;-62
2023/01/29 01:59:59;;;;;;;3.72;1.45;;;;;;;;;;4950115;29;20062;-62
2023/01/29 02:11:40;;;;;;;4.47;1.70;;;;;;;;;;4949920;28;20058;-63
2023/01/29 02:14:10;;;;;;;4.57;2.05;;;;;;;;;;4950202;28;21036;-62
2023/01/29 02:16:40;;;;;;;5.70;1.73;;;;;;;;;;4934594;28;20055;-62
2023/01/29 02:19:21;;;;;;;3.33;1.67;;;;;;;;;;4934637;28;20066;-62
2023/01/29 02:22:05;;;;;;;2.95;1.67;;;;;;;;;;4934843;28;20532;-63
2023/01/29 02:24:58;;;;;;;4.88;1.42;;;;;;;;;;4934748;28;20420;-63
2023/01/29 02:27:43;;;;;;;2.75;1.48;;;;;;;;;;4950862;28;20074;-62
2023/01/29 02:30:18;;;;;;;9.30;1.80;;;;;;;;;;4989777;28;20054;-62
2023/01/29 02:32:57;;;;;;;3.33;1.52;;;;;;;;;;5009073;28;20159;-62
2023/01/29 02:35:51;;;;;;;4.78;1.70;;;;;;;;;;5051232;28;20053;-63
2023/01/29 02:38:41;;;;;;;3.67;1.55;;;;;;;;;;5015504;28;20050;-62
2023/01/29 02:41:20;;;;;;;5.95;2.00;;;;;;;;;;5011533;28;20046;-63
2023/01/29 02:44:19;;;;;;;4.53;1.50;;;;;;;;;;4996542;28;20069;-63
2023/01/29 02:47:24;;;;;;;4.80;1.73;;;;;;;;;;4933846;29;20071;-62
2023/01/29 02:50:03;;;;;;;5.55;2.10;;;;;;;;;;4815847;29;20051;-62
2023/01/29 02:52:57;;;;;;;4.68;2.05;;;;;;;;;;4785990;29;20121;-62
2023/01/29 02:55:49;;;;;;;6.82;1.70;;;;;;;;;;4736625;30;20056;-63
2023/01/29 02:58:57;;;;;;;6.72;1.83;;;;;;;;;;4768085;30;20056;-62
2023/01/29 03:01:35;;;;;;;8.23;2.05;;;;;;;;;;4749986;30;20059;-62
2023/01/29 03:04:14;;;;;;;8.45;1.67;;;;;;;;;;4735184;30;20506;-63
2023/01/29 03:06:55;;;;;;;12.32;2.10;;;;;;;;;;4764329;30;20048;-62
2023/01/29 03:09:41;;;;;;;11.20;2.30;;;;;;;;;;4767828;30;20437;-63
2023/01/29 03:15:37;;;;;;;5.40;1.88;;;;;;;;;;5088147;28;20495;-63
2023/01/29 03:18:26;;;;;;;4.78;1.95;;;;;;;;;;5085562;28;20515;-63
2023/01/29 03:21:48;;;;;;;6.20;1.98;;;;;;;;;;5065134;28;20053;-63
2023/01/29 03:32:45;;;;;;;3.70;1.73;;;;;;;;;;4985872;28;20055;-63
2023/01/29 03:35:35;;;;;;;8.88;1.83;;;;;;;;;;4986162;28;20526;-63
2023/01/29 03:38:10;;;;;;;11.25;2.08;;;;;;;;;;4934433;28;20558;-64
2023/01/29 03:40:45;;;;;;;6.03;1.73;;;;;;;;;;4912085;29;20055;-64
2023/01/29 03:43:54;;;;;;;7.35;2.00;;;;;;;;;;4893193;29;20063;-64
2023/01/29 03:46:31;;;;;;;8.13;1.77;;;;;;;;;;4834257;29;20069;-63
2023/01/29 03:49:33;;;;;;;5.97;2.03;;;;;;;;;;4834194;29;20096;-63
2023/01/29 03:52:17;;;;;;;5.13;1.98;;;;;;;;;;4761875;30;20067;-63
2023/01/29 03:54:56;;;;;;;4.03;2.10;;;;;;;;;;4761894;30;20148;-63
2023/01/29 03:58:00;;;;;;;7.43;2.75;;;;;;;;;;4786102;29;20059;-63
2023/01/29 04:00:37;;;;;;;4.43;2.22;;;;;;;;;;4833987;29;20541;-63
2023/01/29 04:03:29;;;;;;;5.47;2.03;;;;;;;;;;4834018;29;20539;-63
2023/01/29 04:06:14;;;;;;;6.75;2.13;;;;;;;;;;4834091;29;20571;-63
2023/01/29 04:09:12;;;;;;;4.40;2.40;;;;;;;;;;4797839;29;20054;-63
2023/01/29 04:11:50;;;;;;;8.25;2.30;;;;;;;;;;4787206;29;20051;-63
2023/01/29 04:14:22;;;;;;;8.13;2.10;;;;;;;;;;4826413;29;20062;-63
2023/01/29 04:16:59;;;;;;;5.13;1.90;;;;;;;;;;4815089;29;20054;-62
2023/01/29 04:19:37;;;;;;;8.35;1.98;;;;;;;;;;4852234;29;20062;-64
2023/01/29 04:22:38;;;;;;;9.73;2.50;;;;;;;;;;4833675;29;20050;-63
2023/01/29 04:25:28;;;;;;;6.25;2.10;;;;;;;;;;4828342;29;20050;-63
2023/01/29 04:28:27;;;;;;;4.05;1.92;;;;;;;;;;4820893;29;20046;-63
2023/01/29 04:31:06;;;;;;;7.32;2.40;;;;;;;;;;4821411;29;20063;-63
2023/01/29 04:33:47;;;;;;;8.10;2.40;;;;;;;;;;4821476;29;20074;-63
2023/01/29 04:36:51;;;;;;;5.50;2.45;;;;;;;;;;4856719;29;20053;-63
2023/01/29 04:39:52;;;;;;;7.38;2.45;;;;;;;;;;4819138;29;20115;-63
2023/01/29 04:42:29;;;;;;;7.72;2.45;;;;;;;;;;4788189;29;20070;-64
2023/01/29 04:45:19;;;;;;;8.43;2.20;;;;;;;;;;4803210;29;20074;-63
2023/01/29 04:48:12;;;;;;;6.85;2.50;;;;;;;;;;4803446;29;20058;-63
2023/01/29 04:51:12;;;;;;;11.55;2.55;;;;;;;;;;4848689;29;20583;-63
2023/01/29 04:53:51;;;;;;;6.60;2.65;;;;;;;;;;4788427;29;20074;-63
2023/01/29 04:56:36;;;;;;;9.15;2.40;;;;;;;;;;4797201;29;20578;-63
2023/01/29 04:59:15;;;;;;;6.32;3.25;;;;;;;;;;4803290;29;20422;-63
2023/01/29 05:01:47;;;;;;;5.82;2.10;;;;;;;;;;4815881;29;20052;-64
2023/01/29 05:04:18;;;;;;;;;;;;;;;;;;4880168;29;20061;-63
2023/01/29 05:06:49;;;;;;;7.25;2.72;;;;;;;;;;4896416;29;20089;-63
2023/01/29 05:09:19;;;;;;;7.15;2.70;;;;;;;;;;4917173;29;20548;-64
2023/01/29 05:11:50;;;;;;;8.77;2.42;;;;;;;;;;4917019;29;20071;-63
2023/01/29 05:14:23;;;;;;;5.93;2.35;;;;;;;;;;4957449;28;20089;-63
2023/01/29 05:16:56;;;;;;;9.32;2.10;;;;;;;;;;4972243;28;20061;-63
2023/01/29 05:19:26;;;;;;;4.90;2.30;;;;;;;;;;5010351;28;20052;-63
2023/01/29 05:21:57;;;;;;;6.10;2.60;;;;;;;;;;4971047;28;20043;-63
2023/01/29 05:24:28;;;;;;;4.63;2.47;;;;;;;;;;4970915;28;20061;-63
2023/01/29 05:29:48;;;;;;;6.88;2.40;;;;;;;;;;4984361;28;20060;-63
2023/01/29 05:32:18;;;;;;;5.75;2.45;;;;;;;;;;5049473;28;20045;-63
2023/01/29 05:34:48;;;;;;;7.45;2.60;;;;;;;;;;5049625;28;20061;-63
2023/01/29 05:37:18;;;;;;;9.23;2.30;;;;;;;;;;5032298;28;20056;-63
2023/01/29 05:39:48;;;;;;;6.32;2.58;;;;;;;;;;5049313;28;20167;-64
2023/01/29 05:42:18;;;;;;;7.72;2.38;;;;;;;;;;5049570;28;20148;-63
2023/01/29 05:44:48;;;;;;;4.60;2.15;;;;;;;;;;5016502;28;20064;-63
2023/01/29 05:47:21;;;;;;;6.00;2.22;;;;;;;;;;5049139;28;20060;-64
2023/01/29 05:49:51;;;;;;;5.00;2.25;;;;;;;;;;5049316;28;20053;-64
2023/01/29 05:52:21;;;;;;;10.15;2.38;;;;;;;;;;4999908;28;20049;-63
2023/01/29 05:54:51;;;;;;;7.57;2.25;;;;;;;;;;5049480;28;20853;-63
2023/01/29 05:57:21;;;;;;;5.32;2.60;;;;;;;;;;5049122;28;20049;-63
2023/01/29 05:59:51;;;;;;;7.45;2.42;;;;;;;;;;5028942;28;20056;-62
2023/01/29 06:02:21;;;;;;;7.32;2.30;;;;;;;;;;5052793;28;20668;-63
2023/01/29 06:04:51;;;;;;;5.75;1.83;;;;;;;;;;5036327;28;20060;-64
2023/01/29 06:07:22;;;;;;;5.70;2.35;;;;;;;;;;5071363;28;20048;-64
2023/01/29 06:09:52;;;;;;;8.07;2.42;;;;;;;;;;5071432;28;20056;-64
2023/01/29 06:12:21;;;;;;;5.32;2.45;;;;;;;;;;5070725;28;20052;-63
2023/01/29 06:14:51;;;;;;;6.10;2.40;;;;;;;;;;5052115;28;20048;-63
2023/01/29 06:17:21;;;;;;;5.47;2.20;;;;;;;;;;5071254;28;20052;-63
2023/01/29 06:19:51;;;;;;;5.68;2.53;;;;;;;;;;5052844;28;20138;-63
2023/01/29 06:22:21;;;;;;;6.03;2.33;;;;;;;;;;5069246;28;20080;-64
2023/01/29 06:24:51;;;;;;;6.55;2.30;;;;;;;;;;5068928;28;20048;-63
2023/01/29 06:27:21;;;;;;;11.40;2.60;;;;;;;;;;5035712;28;20047;-63
2023/01/29 06:29:51;;;;;;;6.93;2.42;;;;;;;;;;5035818;28;20067;-63
2023/01/29 06:32:21;;;;;;;5.50;2.20;;;;;;;;;;5052029;28;20075;-64
2023/01/29 06:34:52;;;;;;;6.65;2.20;;;;;;;;;;5051261;28;20055;-63
2023/01/29 06:37:22;;;;;;;4.63;2.30;;;;;;;;;;5051364;28;20048;-63
2023/01/29 06:39:51;;;;;;;6.32;2.35;;;;;;;;;;5068409;28;20055;-63
2023/01/29 06:42:26;;;;;;;6.97;2.53;;;;;;;;;;5034935;28;20060;-64
2023/01/29 06:44:57;;;;;;;8.10;2.63;;;;;;;;;;5068256;28;20052;-63
2023/01/29 06:47:27;;;;;;;5.15;2.47;;;;;;;;;;5051733;28;20499;-64
2023/01/29 06:49:57;;;;;;;9.32;2.35;;;;;;;;;;5063985;28;20575;-63
2023/01/29 06:52:28;;;;;;;13.30;2.65;;;;;;;;;;5048010;28;20053;-63
2023/01/29 06:54:58;;;;;;;6.97;2.30;;;;;;;;;;5048118;28;20053;-65
2023/01/29 06:57:31;;;;;;;5.05;2.70;;;;;;;;;;5048393;28;20061;-63
2023/01/29 07:00:01;;;;;;;6.63;2.22;;;;;;;;;;5031677;28;20067;-64
2023/01/29 07:02:31;;;;;;;9.10;2.00;;;;;;;;;;5048050;28;20468;-63
2023/01/29 07:05:01;;;;;;;6.53;2.90;;;;;;;;;;5048333;28;20056;-64
2023/01/29 07:07:33;;;;;;;10.73;2.38;;;;;;;;;;5015139;28;20064;-64
2023/01/29 07:10:03;;;;;;;9.13;2.78;;;;;;;;;;5037804;28;20402;-63
2023/01/29 07:12:34;;;;;;;5.18;2.30;;;;;;;;;;5028278;28;20049;-63
2023/01/29 07:15:04;;;;;;;4.60;2.22;;;;;;;;;;5027840;28;20405;-63
2023/01/29 07:17:34;;;;;;;6.47;2.40;;;;;;;;;;5028527;28;20050;-63
2023/01/29 07:20:05;;;;;;;8.50;2.10;;;;;;;;;;5028162;28;20053;-64
2023/01/29 07:22:35;;;;;;;4.68;2.40;;;;;;;;;;4995189;28;20061;-63
2023/01/29 07:25:06;;;;;;;9.38;2.72;;;;;;;;;;5011735;28;20093;-63
2023/01/29 07:27:36;;;;;;;5.38;2.35;;;;;;;;;;5042084;28;20052;-63
2023/01/29 07:30:07;;;;;;;5.82;2.03;;;;;;;;;;5070362;28;20051;-63
2023/01/29 07:32:37;;;;;;;4.43;2.50;;;;;;;;;;5070553;28;20043;-63
2023/01/29 07:35:07;;;;;;;5.00;2.30;;;;;;;;;;5051400;28;20416;-63
2023/01/29 07:37:37;;;;;;;8.43;2.33;;;;;;;;;;5070129;28;20040;-63
2023/01/29 07:40:11;;;;;;;5.97;2.22;;;;;;;;;;5070329;28;20519;-63
2023/01/29 07:42:43;;;;;;;5.78;1.92;;;;;;;;;;5070624;28;20067;-64
2023/01/29 07:45:13;;;;;;;7.47;2.35;;;;;;;;;;5070369;28;20357;-63
2023/01/29 07:47:43;;;;;;;4.80;2.53;;;;;;;;;;5068038;28;20582;-63
2023/01/29 07:50:13;;;;;;;9.85;2.40;;;;;;;;;;5051605;28;20497;-63
2023/01/29 07:52:43;;;;;;;4.55;2.28;;;;;;;;;;5069516;28;20048;-63
2023/01/29 07:55:13;;;;;;;12.35;2.83;;;;;;;;;;5017806;28;20065;-63
2023/01/29 07:57:43;;;;;;;5.05;2.58;;;;;;;;;;5034311;28;20052;-64
2023/01/29 08:00:14;;;;;;;9.68;2.17;;;;;;;;;;5068430;28;20555;-63
2023/01/29 08:02:45;;;;;;;5.72;2.40;;;;;;;;;;5071283;28;20051;-63
2023/01/29 08:05:15;;;;;;;5.45;2.40;;;;;;;;;;5054449;28;20052;-64
2023/01/29 08:07:45;;;;;;;7.00;2.28;;;;;;;;;;5071161;28;20060;-64
2023/01/29 08:10:28;;;;;;;8.15;2.55;;;;;;;;;;5070901;28;20041;-64
2023/01/29 08:13:00;;;;;;;4.10;2.30;;;;;;;;;;5071196;28;20436;-63
2023/01/29 08:15:30;;;;;;;5.53;2.42;;;;;;;;;;5017559;28;20064;-65
2023/01/29 08:18:02;;;;;;;5.88;2.45;;;;;;;;;;5034199;28;20428;-64
2023/01/29 08:20:32;;;;;;;8.20;2.47;;;;;;;;;;5017679;28;20053;-63
2023/01/29 08:23:04;;;;;;;10.90;2.22;;;;;;;;;;5001700;28;20049;-63
2023/01/29 08:25:36;;;;;;;8.55;2.60;;;;;;;;;;5050702;28;20057;-63
2023/01/29 08:28:07;;;;;;;8.48;2.83;;;;;;;;;;5050870;28;20053;-63
2023/01/29 08:30:38;;;;;;;7.97;2.53;;;;;;;;;;5010991;28;20061;-63
2023/01/29 08:33:08;;;;;;;24.52;3.13;;;;;;;;;;4971551;28;20526;-63
2023/01/29 08:35:40;;;;;;;6.55;2.30;;;;;;;;;;4979133;28;20053;-64
2023/01/29 08:38:10;;;;;;;6.85;2.30;;;;;;;;;;4994456;28;20060;-63
2023/01/29 08:40:40;;;;;;;4.38;2.60;;;;;;;;;;5010683;28;20124;-63
2023/01/29 08:43:12;;;;;;;6.15;2.28;;;;;;;;;;5010946;28;20054;-63
2023/01/29 08:45:44;;;;;;;5.63;2.30;;;;;;;;;;4994197;28;20068;-64
2023/01/29 08:48:14;;;;;;;5.75;2.47;;;;;;;;;;5010925;28;20068;-63
2023/01/29 08:50:44;;;;;;;4.63;2.28;;;;;;;;;;5010473;28;20060;-64
2023/01/29 08:53:14;;;;;;;7.10;2.35;;;;;;;;;;5010823;28;20065;-64
2023/01/29 08:55:45;;;;;;;7.35;2.25;;;;;;;;;;5010396;28;20521;-63
2023/01/29 08:58:15;;;;;;;6.72;2.53;;;;;;;;;;4993963;28;20049;-63
2023/01/29 09:00:46;;;;;;;6.32;2.40;;;;;;;;;;5010348;28;20053;-63
2023/01/29 09:03:16;;;;;;;5.22;2.38;;;;;;;;;;4990602;28;20510;-64
2023/01/29 09:05:46;;;;;;;6.10;2.30;;;;;;;;;;4971164;28;20055;-63
2023/01/29 09:08:16;;;;;;;5.30;2.42;;;;;;;;;;4991912;28;20057;-63
2023/01/29 09:10:46;;;;;;;5.82;2.38;;;;;;;;;;4997042;28;20100;-63
2023/01/29 09:13:16;;;;;;;3.08;2.08;;;;;;;;;;5030042;28;20050;-63
2023/01/29 09:15:46;;;;;;;8.55;2.53;;;;;;;;;;4934290;28;20056;-63
2023/01/29 09:18:16;;;;;;;4.50;2.53;;;;;;;;;;4990435;28;20053;-63
2023/01/29 09:20:46;;;;;;;6.47;2.70;;;;;;;;;;4957902;28;20050;-63
2023/01/29 09:23:16;;;;;;;8.10;2.85;;;;;;;;;;4942225;28;20657;-63
2023/01/29 09:25:46;;;;;;;7.68;3.00;;;;;;;;;;4935226;28;20587;-63
2023/01/29 09:28:16;;;;;;;8.05;2.90;;;;;;;;;;4919958;28;20528;-63
2023/01/29 09:30:46;;;;;;;10.77;2.80;;;;;;;;;;4935138;28;20051;-63
2023/01/29 09:33:17;;;;;;;8.32;2.85;;;;;;;;;;4967679;28;20407;-63
2023/01/29 09:35:47;;;;;;;6.13;2.78;;;;;;;;;;4919662;28;20091;-63
2023/01/29 09:38:17;;;;;;;9.63;2.95;;;;;;;;;;4919843;28;20059;-63
2023/01/29 09:40:56;;;;;;;7.07;2.92;;;;;;;;;;4943998;28;20196;-64
2023/01/29 09:43:43;;;;;;;5.90;2.60;;;;;;;;;;4983372;28;20050;-63
2023/01/29 09:46:32;;;;;;;7.40;2.95;;;;;;;;;;4977465;28;20058;-63
2023/01/29 09:49:28;;;;;;;7.80;3.45;;;;;;;;;;4938356;28;20058;-63
2023/01/29 09:52:03;;;;;;;7.47;3.38;;;;;;;;;;4970740;28;20046;-63
2023/01/29 09:54:46;;;;;;;6.03;2.95;;;;;;;;;;4938383;28;20059;-63
2023/01/29 09:57:29;;;;;;;11.68;3.45;;;;;;;;;;4989876;28;20054;-60
2023/01/29 09:59:59;;;;;;;7.47;3.05;;;;;;;;;;4969991;28;20055;-61
2023/01/29 10:02:57;;;;;;;9.55;2.45;;;;;;;;;;4955156;28;20059;-61
2023/01/29 10:05:59;;;;;;;7.78;2.65;;;;;;;;;;4954243;28;20047;-61
2023/01/29 10:08:50;;;;;;;6.80;2.30;;;;;;;;;;4934891;29;20536;-63
2023/01/29 10:11:37;;;;;;;5.05;2.67;;;;;;;;;;4950967;29;20062;-63
2023/01/29 10:14:18;;;;;;;6.18;2.50;;;;;;;;;;4920363;29;20094;-65
2023/01/29 10:17:05;;;;;;;10.10;2.88;;;;;;;;;;4950801;29;20051;-64
2023/01/29 10:19:54;;;;;;;6.05;2.67;;;;;;;;;;4965122;28;20069;-63
2023/01/29 10:22:56;;;;;;;9.90;2.90;;;;;;;;;;4959998;28;20537;-63
2023/01/29 10:25:27;;;;;;;5.70;2.55;;;;;;;;;;4992457;28;20053;-63
2023/01/29 10:27:59;;;;;;;6.63;2.63;;;;;;;;;;4944518;28;20045;-63
2023/01/29 10:30:37;;;;;;;6.10;2.90;;;;;;;;;;5008884;28;20058;-63
2023/01/29 10:33:16;;;;;;;5.13;2.63;;;;;;;;;;5008708;28;20053;-63
2023/01/29 10:35:51;;;;;;;5.88;2.80;;;;;;;;;;5009025;28;20554;-64
2023/01/29 10:38:36;;;;;;;4.72;2.55;;;;;;;;;;4992143;28;20050;-63
2023/01/29 10:41:12;;;;;;;9.45;2.80;;;;;;;;;;5008805;28;20177;-63
2023/01/29 10:44:00;;;;;;;7.68;2.78;;;;;;;;;;4975996;28;20050;-63
2023/01/29 10:47:07;;;;;;;7.93;2.97;;;;;;;;;;5051216;28;20056;-63
2023/01/29 10:50:15;;;;;;;6.43;2.28;;;;;;;;;;5052287;28;20068;-63
2023/01/29 10:53:02;;;;;;;9.18;2.35;;;;;;;;;;5028400;28;20057;-63
2023/01/29 10:55:47;;;;;;;8.13;2.55;;;;;;;;;;5028088;28;20046;-64
2023/01/29 10:58:40;;;;;;;4.53;2.47;;;;;;;;;;4972531;28;20054;-63
2023/01/29 11:01:10;;;;;;;11.80;2.70;;;;;;;;;;4989025;28;20050;-63
2023/01/29 11:03:40;;;;;;;7.30;2.78;;;;;;;;;;4957273;28;20061;-63
2023/01/29 11:06:15;;;;;;;5.68;2.95;;;;;;;;;;4972789;28;20159;-64
2023/01/29 11:09:08;;;;;;;8.25;2.80;;;;;;;;;;4988988;28;20058;-63
2023/01/29 11:11:50;;;;;;;8.13;2.80;;;;;;;;;;4988976;28;20073;-63
2023/01/29 11:14:46;;;;;;;7.35;2.80;;;;;;;;;;4988535;28;20152;-63
2023/01/29 11:17:21;;;;;;;8.10;3.10;;;;;;;;;;4955376;28;20053;-63
2023/01/29 11:19:56;;;;;;;8.20;2.50;;;;;;;;;;4988775;28;20073;-63
2023/01/29 11:22:29;;;;;;;5.35;2.72;;;;;;;;;;4972694;28;20396;-63
2023/01/29 11:25:17;;;;;;;9.90;2.58;;;;;;;;;;4940488;28;20059;-63
2023/01/29 11:27:59;;;;;;;6.78;2.80;;;;;;;;;;4988724;28;20538;-63
2023/01/29 11:30:40;;;;;;;6.72;2.50;;;;;;;;;;5004805;28;20825;-63
2023/01/29 11:33:23;;;;;;;6.72;2.60;;;;;;;;;;5008328;28;20509;-63
2023/01/29 11:35:55;;;;;;;3.58;2.17;;;;;;;;;;4996047;28;20094;-63
2023/01/29 11:38:27;;;;;;;11.40;3.03;;;;;;;;;;5035598;28;20059;-64
2023/01/29 11:41:07;;;;;;;;;;;;;;;;;;5052298;28;20520;-63
2023/01/29 11:43:38;;;;;;;5.18;2.30;;;;;;;;;;5051913;28;19921;-63
2023/01/29 11:46:14;;;;;;;4.10;2.45;;;;;;;;;;5035740;28;20493;-64
2023/01/29 11:48:53;;;;;;;4.30;2.05;;;;;;;;;;5051691;28;20497;-64
2023/01/29 11:51:35;;;;;;;5.65;2.40;;;;;;;;;;5002335;28;20056;-63
2023/01/29 11:54:10;;;;;;;6.47;2.38;;;;;;;;;;5055114;28;20063;-64
2023/01/29 11:56:46;;;;;;;8.25;2.50;;;;;;;;;;5072016;28;20056;-64
2023/01/29 11:59:28;;;;;;;6.13;2.40;;;;;;;;;;5074030;28;20040;-64
2023/01/29 12:02:21;;;;;;;5.03;2.33;;;;;;;;;;5073943;28;20033;-64
2023/01/29 12:04:54;;;;;;;5.22;2.40;;;;;;;;;;5088405;28;20412;-64
2023/01/29 12:07:25;;;;;;;3.65;2.22;;;;;;;;;;5054641;28;20075;-64
2023/01/29 12:09:58;;;;;;;4.70;2.33;;;;;;;;;;5073884;28;20048;-64
2023/01/29 12:12:39;;;;;;;3.83;2.08;;;;;;;;;;5073877;28;20052;-64
2023/01/29 12:15:23;;;;;;;5.07;2.30;;;;;;;;;;5073560;28;20048;-64
2023/01/29 12:18:03;;;;;;;7.82;2.50;;;;;;;;;;5073459;28;20032;-64
2023/01/29 12:20:41;;;;;;;8.60;2.20;;;;;;;;;;5071494;28;20060;-64
2023/01/29 12:23:40;;;;;;;3.90;1.95;;;;;;;;;;5071222;28;20513;-64
2023/01/29 12:26:15;;;;;;;5.13;1.95;;;;;;;;;;5073603;28;20040;-64
2023/01/29 12:29:23;;;;;;;3.83;2.20;;;;;;;;;;5073579;28;20496;-64
2023/01/29 12:32:02;;;;;;;5.25;2.20;;;;;;;;;;5071262;28;20527;-64
2023/01/29 12:34:50;;;;;;;5.35;2.03;;;;;;;;;;5073203;28;20045;-65
2023/01/29 12:37:40;;;;;;;4.40;1.83;;;;;;;;;;5073270;28;20052;-65
2023/01/29 12:40:16;;;;;;;7.00;2.10;;;;;;;;;;5073752;28;20045;-64
2023/01/29 12:42:52;;;;;;;4.20;1.90;;;;;;;;;;5053955;28;20048;-64
2023/01/29 12:45:26;;;;;;;4.72;1.90;;;;;;;;;;5022317;28;20072;-65
2023/01/29 12:48:04;;;;;;;4.22;1.70;;;;;;;;;;5049970;28;20417;-64
2023/01/29 12:50:38;;;;;;;4.88;2.00;;;;;;;;;;5050594;28;20065;-65
2023/01/29 12:53:30;;;;;;;8.18;2.30;;;;;;;;;;5010503;28;20518;-64
2023/01/29 12:56:24;;;;;;;8.10;2.00;;;;;;;;;;4994196;28;20052;-65
2023/01/29 12:58:56;;;;;;;6.30;2.20;;;;;;;;;;4933065;29;20059;-64
2023/01/29 13:01:35;;;;;;;7.00;1.40;;;;;;;;;;4917137;29;20058;-65
2023/01/29 13:04:42;;;;;;;3.53;1.23;;;;;;;;;;4917218;29;20591;-66
2023/01/29 13:07:46;;;;;;;3.88;1.20;;;;;;;;;;4820958;29;20527;-66
2023/01/29 13:10:23;;;;;;;3.90;1.20;;;;;;;;;;4749313;30;20063;-65
2023/01/29 13:13:01;;;;;;;2.55;1.20;;;;;;;;;;4720001;30;20060;-65
2023/01/29 13:15:41;;;;;;;;;;;;;;;;;;4749341;30;20060;-66
2023/01/29 13:18:32;;;;;;;2.05;1.27;;;;;;;;;;4734349;30;20535;-64
2023/01/29 13:21:04;;;;;;;4.82;1.30;;;;;;;;;;4749189;30;20071;-64
2023/01/29 13:23:38;;;;;;;5.20;1.33;;;;;;;;;;4749084;30;20063;-65
2023/01/29 13:26:09;;;;;;;4.32;1.40;;;;;;;;;;4775044;30;20416;-66
2023/01/29 13:28:45;;;;;;;3.33;1.13;;;;;;;;;;4784748;30;20062;-65
2023/01/29 13:31:46;;;;;;;3.10;1.40;;;;;;;;;;4809205;29;20069;-65
2023/01/29 13:34:30;;;;;;;11.00;1.27;;;;;;;;;;4802875;29;20065;-65
2023/01/29 13:37:08;;;;;;;2.00;1.17;;;;;;;;;;4849130;29;20054;-65
2023/01/29 13:39:48;;;;;;;4.53;1.52;;;;;;;;;;4857369;29;20057;-62
2023/01/29 13:42:32;;;;;;;2.10;1.00;;;;;;;;;;4857468;29;20077;-62
2023/01/29 13:45:06;;;;;;;4.05;1.35;;;;;;;;;;4924106;29;20519;-62
2023/01/29 13:47:39;;;;;;;2.63;1.30;;;;;;;;;;4946262;28;20060;-62
2023/01/29 13:50:18;;;;;;;4.32;2.17;;;;;;;;;;5029281;28;20053;-62
2023/01/29 13:53:00;;;;;;;3.90;1.35;;;;;;;;;;4997223;28;20057;-63
2023/01/29 13:55:33;;;;;;;4.38;1.15;;;;;;;;;;5013347;28;20061;-63
2023/01/29 13:58:18;;;;;;;4.03;1.42;;;;;;;;;;5028470;28;20053;-63
2023/01/29 14:00:49;;;;;;;2.92;1.40;;;;;;;;;;5029038;28;20045;-64
2023/01/29 14:03:25;;;;;;;4.55;1.40;;;;;;;;;;5029234;28;21071;-62
2023/01/29 14:06:03;;;;;;;2.58;1.92;;;;;;;;;;4980478;28;20045;-62
2023/01/29 14:08:44;;;;;;;4.53;1.83;;;;;;;;;;5029041;28;20053;-62
2023/01/29 14:11:18;;;;;;;4.45;1.40;;;;;;;;;;5034034;28;20059;-63
2023/01/29 14:13:51;;;;;;;3.20;1.33;;;;;;;;;;5071285;28;20060;-64
2023/01/29 14:16:21;;;;;;;3.33;1.50;;;;;;;;;;5086062;28;20056;-63
2023/01/29 14:18:58;;;;;;;3.97;1.42;;;;;;;;;;5071349;28;20047;-64
2023/01/29 14:21:31;;;;;;;2.70;1.40;;;;;;;;;;5071527;28;20041;-64
2023/01/29 14:24:17;;;;;;;3.05;1.30;;;;;;;;;;5069740;28;20044;-64
2023/01/29 14:26:48;;;;;;;;;;;;;;;;;;5070638;28;20412;-65
2023/01/29 14:29:24;;;;;;;3.50;1.52;;;;;;;;;;5068827;28;19927;-65
2023/01/29 14:32:24;;;;;;;2.33;1.42;;;;;;;;;;5071032;28;20044;-64
2023/01/29 14:35:04;;;;;;;6.05;2.00;;;;;;;;;;5071214;28;20045;-63
2023/01/29 14:37:37;;;;;;;2.45;1.38;;;;;;;;;;5071109;28;20511;-65
2023/01/29 14:40:10;;;;;;;3.45;1.48;;;;;;;;;;5070947;28;20052;-64
2023/01/29 14:43:07;;;;;;;1.90;1.30;;;;;;;;;;5070632;28;20036;-64
2023/01/29 14:45:40;;;;;;;2.70;1.50;;;;;;;;;;5034648;28;20770;-64
2023/01/29 14:48:10;;;;;;;3.90;1.42;;;;;;;;;;5048505;28;20164;-63
2023/01/29 14:50:47;;;;;;;3.13;1.52;;;;;;;;;;5031670;28;20045;-65
2023/01/29 14:53:54;;;;;;;3.45;1.40;;;;;;;;;;5048318;28;20064;-64
2023/01/29 14:56:39;;;;;;;3.33;1.30;;;;;;;;;;5048300;28;20049;-64
2023/01/29 14:59:28;;;;;;;3.60;1.35;;;;;;;;;;5014819;28;20390;-64
2023/01/29 15:02:25;;;;;;;5.53;1.60;;;;;;;;;;5011789;28;20513;-64
2023/01/29 15:04:59;;;;;;;4.00;1.50;;;;;;;;;;4969600;28;20086;-64
2023/01/29 15:07:54;;;;;;;3.22;1.42;;;;;;;;;;4969340;28;20055;-64
2023/01/29 15:10:42;;;;;;;3.30;1.25;;;;;;;;;;4895701;29;20160;-63
2023/01/29 15:13:21;;;;;;;2.85;1.45;;;;;;;;;;4895566;29;20056;-63
2023/01/29 15:15:56;;;;;;;;;;;;;;;;;;4897291;29;20453;-63
2023/01/29 15:18:40;;;;;;;4.38;1.23;;;;;;;;;;4896628;29;19923;-64
2023/01/29 15:21:14;;;;;;;8.52;1.55;;;;;;;;;;4896526;29;20067;-64
2023/01/29 15:23:49;;;;;;;3.55;1.20;;;;;;;;;;4909790;29;20064;-65
2023/01/29 15:26:21;;;;;;;2.10;1.20;;;;;;;;;;4930592;29;20048;-64
2023/01/29 15:28:56;;;;;;;1.75;1.05;;;;;;;;;;4916137;29;20091;-65
2023/01/29 15:31:34;;;;;;;5.18;1.25;;;;;;;;;;4883623;29;20055;-64
2023/01/29 15:34:06;;;;;;;2.42;1.00;;;;;;;;;;4899388;29;20048;-64
2023/01/29 15:36:38;;;;;;;3.75;1.00;;;;;;;;;;4883726;29;20064;-64
2023/01/29 15:39:11;;;;;;;1.80;0.88;;;;;;;;;;4906048;29;20415;-65
2023/01/29 15:41:43;;;;;;;2.90;1.20;;;;;;;;;;4963232;28;20122;-65
2023/01/29 15:44:21;;;;;;;3.15;1.15;;;;;;;;;;4940666;28;20054;-65
2023/01/29 15:47:00;;;;;;;5.00;1.20;;;;;;;;;;5005936;28;20527;-64
2023/01/29 15:49:34;;;;;;;1.83;1.13;;;;;;;;;;4985210;28;20052;-67
2023/01/29 15:52:18;;;;;;;4.20;1.23;;;;;;;;;;5067771;28;20055;-64
2023/01/29 15:54:48;;;;;;;;;;;;;;;;;;5034624;28;20626;-65
2023/01/29 15:57:36;;;;;;;3.95;1.50;;;;;;;;;;5034146;28;19921;-64
2023/01/29 16:00:17;;;;;;;5.80;1.30;;;;;;;;;;5067456;28;20091;-65
2023/01/29 16:02:47;;;;;;;1.95;1.17;;;;;;;;;;5067607;28;20075;-64
2023/01/29 16:05:31;;;;;;;1.90;1.20;;;;;;;;;;5070043;28;20044;-64
2023/01/29 16:08:03;;;;;;;1.90;1.10;;;;;;;;;;5069972;28;20051;-63
2023/01/29 16:10:33;;;;;;;3.33;1.33;;;;;;;;;;5070006;28;20045;-65
2023/01/29 16:13:05;;;;;;;5.75;1.30;;;;;;;;;;5051588;28;20057;-64
2023/01/29 16:15:39;;;;;;;4.15;1.20;;;;;;;;;;5051078;28;20049;-64